createdAt,value
2023-02-02T07:08:38.127Z,100167.69
2023-02-02T07:11:41.983Z,100178.00
2023-02-02T07:14:47.925Z,100162.19
2023-02-02T07:17:50.602Z,100159.31
2023-02-02T07:20:53.011Z,100157.84
2023-02-02T07:23:57.733Z,100154.91
2023-02-02T07:27:00.191Z,100160.56
2023-02-02T07:30:04.014Z,100172.00
2023-02-02T07:33:06.458Z,100176.59
2023-02-02T07:36:09.261Z,100186.16
2023-02-02T07:39:13.118Z,100191.97
2023-02-02T07:42:15.742Z,100192.63
2023-02-02T07:45:26.619Z,100192.94
2023-02-02T07:48:39.608Z,100196.97
2023-02-02T07:51:47.240Z,100195.28
2023-02-02T07:54:55.762Z,100189.84
2023-02-02T07:58:00.093Z,100175.09
2023-02-02T08:01:02.913Z,100177.41
2023-02-02T08:04:05.696Z,100186.28
2023-02-02T08:07:08.054Z,100192.34
2023-02-02T08:10:12.225Z,100190.81
2023-02-02T08:13:14.620Z,100200.38
2023-02-02T08:16:17.396Z,100211.69
2023-02-02T08:19:19.836Z,100212.03
2023-02-02T08:22:22.610Z,100226.25
2023-02-02T08:25:26.767Z,100224.88
2023-02-02T08:28:29.549Z,100234.56
2023-02-02T08:31:32.662Z,100234.06
2023-02-02T08:34:36.919Z,100245.56
2023-02-02T08:37:39.311Z,100238.97
2023-02-02T08:40:43.286Z,100235.16
2023-02-02T08:43:45.838Z,100240.56
2023-02-02T08:46:48.536Z,100238.97
2023-02-02T08:49:50.969Z,100235.38
2023-02-02T08:52:53.879Z,100238.66
2023-02-02T08:56:01.141Z,100237.34
2023-02-02T08:59:05.293Z,100244.37
2023-02-02T09:02:09.424Z,100239.53
2023-02-02T09:05:12.123Z,100238.31
2023-02-02T09:08:14.551Z,100235.34
2023-02-02T09:11:19.205Z,100244.25
2023-02-02T09:14:21.626Z,100259.69
2023-02-02T09:17:24.354Z,100269.72
2023-02-02T09:20:26.750Z,100262.06
2023-02-02T09:23:30.299Z,100269.72
2023-02-02T09:26:34.179Z,100288.97
2023-02-02T09:29:36.882Z,100278.25
2023-02-02T09:32:39.316Z,100282.78
2023-02-02T09:35:42.074Z,100269.44
2023-02-02T09:38:44.565Z,100286.09
2023-02-02T09:42:20.174Z,100283.72
2023-02-02T09:45:25.700Z,100285.84
2023-02-02T09:48:30.590Z,100292.06
2023-02-02T09:51:36.047Z,100283.72
2023-02-02T09:54:41.062Z,100282.19
2023-02-02T09:57:45.790Z,100276.72
2023-02-02T10:00:53.135Z,100278.97
2023-02-02T10:04:01.238Z,100277.00
2023-02-02T10:07:06.584Z,100273.47
2023-02-02T10:10:11.512Z,100271.13
2023-02-02T10:13:16.394Z,100275.06
2023-02-02T10:16:19.451Z,100275.56
2023-02-02T10:19:25.330Z,100272.00
2023-02-02T10:22:28.035Z,100259.38
2023-02-02T10:25:30.436Z,100262.88
2023-02-02T10:28:41.467Z,100270.41
2023-02-02T10:31:49.219Z,100277.28
2023-02-02T10:35:13.043Z,100273.34
2023-02-02T10:38:18.851Z,100263.94
2023-02-02T10:41:25.284Z,100264.19
2023-02-02T10:44:33.676Z,100267.50
2023-02-02T10:47:36.395Z,100264.59
2023-02-02T10:50:38.836Z,100261.53
2023-02-02T10:53:41.509Z,100276.91
2023-02-02T10:56:46.147Z,100274.56
2023-02-02T10:59:55.431Z,100256.12
2023-02-02T11:02:58.954Z,100266.69
2023-02-02T11:06:21.272Z,100264.78
2023-02-02T11:09:25.151Z,100258.13
2023-02-02T11:12:30.640Z,100266.44
2023-02-02T11:15:34.466Z,100251.72
2023-02-02T11:18:37.126Z,100260.38
2023-02-02T11:21:39.552Z,100240.03
2023-02-02T11:24:45.477Z,100250.00
2023-02-02T11:27:47.972Z,100250.66
2023-02-02T11:30:52.621Z,100244.56
2023-02-02T11:33:55.786Z,100244.22
2023-02-02T11:37:03.118Z,100245.31
2023-02-02T11:40:18.987Z,100254.53
2023-02-02T11:43:26.268Z,100245.75
2023-02-02T11:46:31.126Z,100250.37
2023-02-02T11:49:38.496Z,100242.66
2023-02-02T11:52:40.872Z,100258.63
2023-02-02T11:55:43.537Z,100255.56
2023-02-02T11:58:46.878Z,100252.22
2023-02-02T12:01:50.945Z,100256.97
2023-02-02T12:04:54.751Z,100260.47
2023-02-02T12:07:57.150Z,100243.41
2023-02-02T12:11:00.730Z,100247.69
2023-02-02T12:14:18.543Z,100244.31
2023-02-02T12:17:30.459Z,100226.63
2023-02-02T12:20:37.086Z,100244.53
2023-02-02T12:23:49.795Z,100240.50
2023-02-02T12:26:56.964Z,100238.94
2023-02-02T12:30:19.777Z,100238.34
2023-02-02T12:33:29.938Z,100232.84
2023-02-02T12:36:40.042Z,100232.31
2023-02-02T12:39:46.880Z,100236.84
2023-02-02T12:42:55.194Z,100238.38
2023-02-02T12:46:04.744Z,100234.72
2023-02-02T12:49:21.548Z,100236.22
2023-02-02T12:52:32.199Z,100232.03
2023-02-02T12:55:38.534Z,100235.31
2023-02-02T12:58:43.774Z,100235.53
2023-02-02T13:01:56.829Z,100232.69
2023-02-02T13:05:12.881Z,100235.69
2023-02-02T13:08:16.717Z,100228.53
2023-02-02T13:11:31.386Z,100217.28
2023-02-02T13:14:35.479Z,100233.13
2023-02-02T13:17:40.246Z,100242.25
2023-02-02T13:20:45.406Z,100233.03
2023-02-02T13:23:50.301Z,100243.72
2023-02-02T13:26:53.161Z,100244.66
2023-02-02T13:29:56.529Z,100239.91
2023-02-02T13:33:00.425Z,100254.56
2023-02-02T13:36:06.229Z,100248.75
2023-02-02T13:39:13.206Z,100255.53
2023-02-02T13:42:24.789Z,100252.56
2023-02-02T13:45:40.294Z,100246.06
2023-02-02T13:48:51.091Z,100253.03
2023-02-02T13:52:01.047Z,100255.91
2023-02-02T13:55:28.028Z,100271.13
2023-02-02T13:58:43.318Z,100274.94
2023-02-02T14:01:48.027Z,100261.16
2023-02-02T14:04:54.924Z,100281.13
2023-02-02T14:08:03.163Z,100268.72
2023-02-02T14:11:06.182Z,100266.81
2023-02-02T14:14:28.836Z,100268.03
2023-02-02T14:17:54.067Z,100267.56
2023-02-02T14:20:56.578Z,100291.81
2023-02-02T14:24:02.950Z,100282.78
2023-02-02T14:27:32.932Z,100277.34
2023-02-02T14:30:36.375Z,100293.03
2023-02-02T14:33:39.864Z,100290.63
2023-02-02T14:36:50.631Z,100290.88
2023-02-02T14:39:58.302Z,100292.06
2023-02-02T14:43:25.497Z,100299.66
2023-02-02T14:46:38.425Z,100302.03
2023-02-02T14:49:41.186Z,100311.06
2023-02-02T14:52:43.568Z,100301.09
2023-02-02T14:55:56.497Z,100310.47
2023-02-02T14:59:00.138Z,100310.81
2023-02-02T15:02:10.350Z,100312.25
2023-02-02T15:05:41.710Z,100315.84
2023-02-02T15:08:44.865Z,100328.66
2023-02-02T15:12:24.937Z,100321.53
2023-02-02T15:15:31.639Z,100327.12
2023-02-02T15:18:39.283Z,100334.63
2023-02-02T15:21:42.004Z,100340.09
2023-02-02T15:24:44.867Z,100338.53
2023-02-02T15:27:56.980Z,100343.38
2023-02-02T15:31:02.590Z,100350.50
2023-02-02T15:34:10.959Z,100348.13
2023-02-02T15:37:14.596Z,100356.66
2023-02-02T15:40:21.615Z,100353.44
2023-02-02T15:43:24.360Z,100355.97
2023-02-02T15:46:29.581Z,100365.44
2023-02-02T15:49:35.461Z,100358.56
2023-02-02T15:52:46.286Z,100360.22
2023-02-02T15:55:48.977Z,100362.72
2023-02-02T15:58:52.945Z,100363.78
2023-02-02T16:02:19.782Z,100360.44
